Time;durP1;ratioP1;P1;durP2;ratioP2;P2;SDS_P1;SDS_P2;PMS_P1;PMS_P2;Temp;Humidity;BMP_temperature;BMP_pressure;BME280_temperature;BME280_humidity;BME280_pressure;Samples;Min_cycle;Max_cycle;Signal;HPM_P1;HPM_P2
2022/02/22 00:03:01;;;;;;;2.78;0.35;;;;;;;4.47;59.42;96758.06;12616395;23;20025;-79
2022/02/22 00:08:24;;;;;;;1.60;0.28;;;;;;;4.47;59.64;96769.13;12692999;23;20013;-82
2022/02/22 00:13:48;;;;;;;1.10;0.30;;;;;;;4.59;59.50;96781.06;12650290;23;20062;-84
2022/02/22 00:19:09;;;;;;;1.70;0.20;;;;;;;4.62;60.12;96783.97;12690737;23;20009;-83
2022/02/22 00:24:31;;;;;;;3.33;0.20;;;;;;;4.59;59.60;96792.13;12715095;23;20014;-83
2022/02/22 00:29:54;;;;;;;0.35;0.10;;;;;;;4.52;59.30;96803.28;12655100;23;20006;-83
2022/02/22 00:35:15;;;;;;;0.90;0.20;;;;;;;4.41;59.41;96820.41;12650715;23;20006;-85
2022/02/22 00:40:37;;;;;;;2.47;0.30;;;;;;;4.32;59.38;96830.84;12654580;23;20021;-83
2022/02/22 00:45:59;;;;;;;1.33;0.20;;;;;;;4.23;59.84;96836.34;12674881;23;20025;-83
2022/02/22 00:51:21;;;;;;;2.65;0.50;;;;;;;4.25;59.84;96853.81;12698049;23;20005;-83
2022/02/22 00:56:43;;;;;;;2.65;0.30;;;;;;;4.30;59.58;96850.03;12673726;23;20006;-83
2022/02/22 01:08:24;;;;;;;1.25;0.20;;;;;;;4.39;59.30;96870.00;12815461;23;19924;-84
2022/02/22 01:13:45;;;;;;;1.80;0.20;;;;;;;4.45;59.83;96878.78;12795021;23;20025;-84
2022/02/22 01:25:23;;;;;;;1.52;0.25;;;;;;;4.56;59.08;96909.38;12815497;23;20028;-84
2022/02/22 01:30:44;;;;;;;2.40;0.40;;;;;;;4.57;58.98;96916.34;12819756;23;20052;-83
2022/02/22 01:36:06;;;;;;;1.88;0.43;;;;;;;4.57;58.86;96915.63;12815120;23;20033;-83
2022/02/22 01:41:29;;;;;;;0.98;0.17;;;;;;;4.55;59.30;96927.25;12754641;23;20032;-84
2022/02/22 01:46:57;;;;;;;1.25;0.20;;;;;;;4.58;58.75;96917.09;12799684;23;20024;-84
2022/02/22 01:52:18;;;;;;;1.65;0.32;;;;;;;4.57;58.64;96916.34;12819803;23;20061;-84
2022/02/22 01:57:40;;;;;;;1.73;0.30;;;;;;;4.50;58.38;96933.78;12778561;23;20027;-84
2022/02/22 02:03:05;;;;;;;1.33;0.22;;;;;;;4.38;58.56;96926.59;12810688;23;20001;-82
2022/02/22 02:08:27;;;;;;;3.22;0.77;;;;;;;4.31;58.61;96930.91;12733021;23;20009;-84
2022/02/22 02:13:50;;;;;;;2.60;0.85;;;;;;;4.18;58.70;96934.03;12737084;23;20005;-84
2022/02/22 02:19:13;;;;;;;1.88;0.50;;;;;;;4.12;59.38;96928.72;12737364;23;20025;-85
2022/02/22 02:24:34;;;;;;;1.15;0.20;;;;;;;4.12;59.00;96928.00;12732354;23;20012;-84
2022/02/22 02:29:59;;;;;;;1.33;0.30;;;;;;;4.24;59.54;96935.19;12711653;23;20104;-84
2022/02/22 02:35:21;;;;;;;1.42;0.30;;;;;;;4.38;60.02;96943.16;12737917;23;20032;-84
2022/02/22 02:40:44;;;;;;;1.95;0.40;;;;;;;4.52;59.79;96947.00;12756956;23;20028;-83
2022/02/22 02:46:05;;;;;;;1.65;0.30;;;;;;;4.67;59.86;96951.63;12712206;23;20085;-84
2022/02/22 02:51:27;;;;;;;2.83;0.22;;;;;;;4.66;59.84;96950.16;12716164;23;20009;-85
2022/02/22 02:56:49;;;;;;;1.00;0.30;;;;;;;4.74;59.69;96961.84;12756539;23;20025;-85
2022/02/22 03:02:11;;;;;;;1.55;0.20;;;;;;;4.82;60.18;96962.44;12735952;23;20064;-84
2022/02/22 03:07:32;;;;;;;1.90;0.20;;;;;;;4.94;60.12;96959.91;12715719;23;20024;-83
2022/02/22 03:12:54;;;;;;;1.58;0.20;;;;;;;4.82;60.38;96979.75;12735548;23;20021;-82
2022/02/22 03:18:16;;;;;;;1.40;0.20;;;;;;;4.83;60.41;96986.06;12735876;23;20017;-84
2022/02/22 03:23:37;;;;;;;1.15;0.30;;;;;;;4.83;60.52;96997.84;12768808;23;20021;-84
2022/02/22 03:28:59;;;;;;;2.03;0.20;;;;;;;4.90;61.08;97007.31;12755971;23;20006;-84
2022/02/22 03:34:21;;;;;;;1.05;0.20;;;;;;;4.94;60.33;97006.91;12731787;23;20016;-84
2022/02/22 03:39:43;;;;;;;0.80;0.17;;;;;;;4.75;60.69;97024.84;12755968;23;20049;-83
2022/02/22 03:45:06;;;;;;;1.52;0.25;;;;;;;4.73;60.92;97021.19;12756423;23;20001;-85
2022/02/22 03:50:28;;;;;;;1.27;0.20;;;;;;;4.76;61.27;97026.31;12735342;23;20029;-85
2022/02/22 03:55:50;;;;;;;0.52;0.10;;;;;;;4.78;61.13;97022.97;12756286;23;20001;-84
2022/02/22 04:01:12;;;;;;;1.10;0.20;;;;;;;4.71;61.48;97034.84;12655583;23;20065;-82
2022/02/22 04:06:34;;;;;;;1.02;0.20;;;;;;;4.57;61.69;97053.84;12690179;23;20017;-83
2022/02/22 04:11:56;;;;;;;0.95;0.10;;;;;;;4.65;61.29;97053.75;12714367;23;20009;-84
2022/02/22 04:17:18;;;;;;;0.30;0.10;;;;;;;4.71;61.61;97068.75;12670196;23;20050;-84
2022/02/22 04:22:43;;;;;;;0.65;0.10;;;;;;;4.81;61.58;97088.19;12697101;23;20012;-82
2022/02/22 04:28:04;;;;;;;0.93;0.35;;;;;;;4.84;61.46;97090.56;12698653;23;20013;-84
2022/02/22 04:33:26;;;;;;;0.65;0.10;;;;;;;4.93;61.44;97094.69;12759386;23;20023;-83
2022/02/22 04:38:48;;;;;;;1.05;0.20;;;;;;;5.03;61.48;97097.53;12734600;23;20008;-84
2022/02/22 04:44:10;;;;;;;1.02;0.20;;;;;;;4.94;61.38;97106.47;12758948;23;20005;-83
2022/02/22 04:49:32;;;;;;;0.73;0.20;;;;;;;4.99;61.43;97111.75;12714088;23;20021;-82
2022/02/22 04:54:53;;;;;;;1.08;0.10;;;;;;;5.07;61.22;97117.91;12758729;23;20044;-84
2022/02/22 05:00:16;;;;;;;1.05;0.10;;;;;;;5.08;61.27;97118.66;12757665;23;20016;-81
2022/02/22 05:05:43;;;;;;;0.45;0.10;;;;;;;5.15;60.79;97131.66;12759026;23;20017;-83
2022/02/22 05:11:11;;;;;;;0.82;0.20;;;;;;;5.12;60.97;97143.88;12738048;23;20009;-81
2022/02/22 05:16:35;;;;;;;0.88;0.13;;;;;;;5.13;61.10;97146.06;12732472;23;20012;-84
2022/02/22 05:21:57;;;;;;;0.95;0.10;;;;;;;5.16;61.12;97155.25;12776455;23;20049;-81
2022/02/22 05:27:19;;;;;;;1.50;0.10;;;;;;;5.23;60.92;97171.03;12775463;23;20002;-80
2022/02/22 05:32:41;;;;;;;1.15;0.20;;;;;;;5.27;61.14;97171.34;12756221;23;20065;-85
2022/02/22 05:38:03;;;;;;;1.73;0.20;;;;;;;5.31;61.20;97179.25;12756767;23;20027;-83
2022/02/22 05:43:27;;;;;;;0.30;0.20;;;;;;;5.24;61.52;97183.56;12733697;23;20013;-83
2022/02/22 06:58:26;;;;;;;2.63;0.28;;;;;;;5.42;62.06;97375.25;12782848;23;20025;-81
2022/02/22 07:03:49;;;;;;;3.05;0.22;;;;;;;5.40;61.93;97378.59;12761027;22;20013;-81
2022/02/22 07:09:18;;;;;;;1.92;0.30;;;;;;;5.38;61.92;97399.81;12712340;23;20002;-81
2022/02/22 07:14:39;;;;;;;2.72;0.47;;;;;;;5.38;61.98;97410.91;12774997;23;20008;-84
2022/02/22 07:20:07;;;;;;;2.22;0.32;;;;;;;5.38;61.81;97439.31;12738925;23;20049;-83
2022/02/22 07:25:33;;;;;;;3.95;0.95;;;;;;;5.34;61.53;97441.75;12737739;23;20037;-83
2022/02/22 07:31:18;;;;;;;8.77;0.60;;;;;;;5.51;61.42;97468.75;12747653;23;20025;-83
2022/02/22 07:36:43;;;;;;;3.53;0.65;;;;;;;5.84;60.82;97485.94;12736463;23;20013;-83
2022/02/22 07:42:05;;;;;;;2.95;0.68;;;;;;;6.80;59.94;97482.44;12735857;23;20069;-83
2022/02/22 07:47:28;;;;;;;4.50;1.35;;;;;;;12.94;57.18;97501.94;12734476;23;20029;-82
2022/02/22 07:52:50;;;;;;;5.38;0.98;;;;;;;14.86;47.58;97513.09;12774378;23;20017;-83
2022/02/22 07:58:12;;;;;;;7.45;1.10;;;;;;;13.54;46.11;97529.72;12776754;23;20041;-82
2022/02/22 08:03:36;;;;;;;7.47;1.58;;;;;;;11.58;48.25;97537.59;12732433;23;20001;-83
2022/02/22 08:08:58;;;;;;;5.95;0.88;;;;;;;10.14;49.84;97536.88;12776733;23;20032;-83
2022/02/22 08:14:20;;;;;;;5.88;0.88;;;;;;;9.09;49.79;97543.09;12755912;23;20026;-83
2022/02/22 08:19:46;;;;;;;8.43;0.90;;;;;;;8.53;50.40;97559.28;12714387;23;20005;-83
2022/02/22 08:25:08;;;;;;;9.57;1.10;;;;;;;8.64;50.32;97572.59;12708507;23;20024;-81
2022/02/22 08:30:30;;;;;;;7.30;1.50;;;;;;;10.06;49.55;97580.97;12748105;23;20005;-84
2022/02/22 08:35:53;;;;;;;7.35;1.02;;;;;;;11.17;47.63;97599.34;12735595;23;20020;-83
2022/02/22 08:41:14;;;;;;;9.15;1.60;;;;;;;12.80;44.17;97595.03;12744450;23;20024;-83
2022/02/22 08:46:36;;;;;;;7.93;1.50;;;;;;;17.28;42.48;97616.47;12743155;23;20078;-85
2022/02/22 08:51:57;;;;;;;7.85;1.10;;;;;;;27.41;31.85;97634.88;12763157;23;20017;-79
2022/02/22 08:57:40;;;;;;;16.53;1.33;;;;;;;28.22;24.47;97636.84;12708772;23;20027;-85
2022/02/22 09:03:03;;;;;;;7.35;1.60;;;;;;;21.63;23.79;97651.22;12698799;23;20013;-85
2022/02/22 09:08:24;;;;;;;6.50;1.10;;;;;;;23.25;25.52;97641.56;12699956;23;20017;-85
2022/02/22 09:13:45;;;;;;;8.50;1.30;;;;;;;19.66;24.40;97658.72;12762489;23;20013;-84
2022/02/22 09:19:06;;;;;;;6.50;1.55;;;;;;;16.08;27.93;97653.69;12750323;23;20099;-83
2022/02/22 09:24:28;;;;;;;6.28;1.55;;;;;;;15.87;26.54;97663.31;12699865;23;20072;-85
2022/02/22 09:29:49;;;;;;;8.35;1.40;;;;;;;14.06;28.80;97671.28;12701302;23;20031;-84
2022/02/22 09:35:48;;;;;;;7.47;1.35;;;;;;;12.29;28.86;97670.50;12717849;23;20967;31
2022/02/22 09:41:10;;;;;;;6.68;1.40;;;;;;;10.58;30.75;97696.09;12612021;23;20019;-89
2022/02/22 09:46:32;;;;;;;5.60;1.30;;;;;;;9.65;32.27;97706.41;12568501;23;20021;-88
2022/02/22 09:51:54;;;;;;;6.45;1.20;;;;;;;9.28;33.04;97703.84;12587237;23;20026;-86
2022/02/22 09:57:16;;;;;;;6.75;1.30;;;;;;;9.20;33.19;97694.19;12571885;23;20058;-87
2022/02/22 10:02:38;;;;;;;4.80;1.15;;;;;;;12.22;36.93;97705.06;12577015;23;20047;-88
2022/02/22 10:08:01;;;;;;;7.63;1.70;;;;;;;21.48;26.46;97709.06;12498808;23;20120;-85
2022/02/22 10:13:22;;;;;;;6.85;1.45;;;;;;;19.96;24.47;97720.50;12459805;23;20023;-88
2022/02/22 10:18:53;;;;;;;7.18;1.50;;;;;;;15.96;25.69;97726.34;12478954;23;20015;-81
2022/02/22 10:24:17;;;;;;;8.50;1.23;;;;;;;13.83;27.19;97719.88;12469827;23;20010;-80
2022/02/22 10:29:38;;;;;;;7.93;1.20;;;;;;;16.76;28.33;97711.63;12671443;23;20024;-84
2022/02/22 10:34:59;;;;;;;8.50;1.35;;;;;;;18.82;24.94;97726.00;12698118;23;20021;-84
2022/02/22 10:40:30;;;;;;;6.20;1.30;;;;;;;16.88;24.26;97729.03;12678209;23;20021;-83
2022/02/22 10:45:52;;;;;;;6.18;1.50;;;;;;;13.75;26.31;97736.25;12721785;23;20021;-82
2022/02/22 10:51:15;;;;;;;8.88;1.08;;;;;;;11.96;28.65;97737.00;12730305;23;20021;-84
2022/02/22 10:56:52;;;;;;;4.28;0.80;;;;;;;10.83;30.12;97748.69;12730370;23;20034;-84
2022/02/22 11:02:14;;;;;;;5.95;1.13;;;;;;;10.18;30.90;97772.16;12728745;23;20040;-81
2022/02/22 11:07:36;;;;;;;4.05;0.93;;;;;;;10.20;31.29;97763.94;12749762;23;20318;-79
2022/02/22 11:13:02;;;;;;;6.28;1.25;;;;;;;10.80;32.38;97765.91;12699248;23;20023;-77
2022/02/22 11:18:57;;;;;;;8.73;1.40;;;;;;;11.55;31.19;97756.81;12721524;23;20428;-77
2022/02/22 11:25:29;;;;;;;6.57;1.10;;;;;;;11.22;31.39;97768.00;12724692;23;20026;-77
2022/02/22 11:30:50;;;;;;;5.65;0.93;;;;;;;12.16;30.86;97749.47;12698784;23;20017;-77
2022/02/22 11:37:46;;;;;;;7.22;1.50;;;;;;;11.58;30.99;97768.84;12725247;23;20096;-77
2022/02/22 11:44:15;;;;;;;7.97;1.70;;;;;;;10.54;32.82;97776.78;12724523;23;20029;-76
2022/02/22 11:50:38;;;;;;;7.00;1.40;;;;;;;9.81;34.06;97774.47;12710688;23;20021;-76
2022/02/22 12:04:43;;;;;;;8.60;1.40;;;;;;;10.30;34.83;97767.44;12761273;23;20449;-76
2022/02/22 12:18:53;;;;;;;6.68;1.17;;;;;;;9.91;34.34;97761.22;12739957;23;20018;-77
2022/02/22 12:24:42;;;;;;;5.38;1.10;;;;;;;9.35;34.87;97786.50;12711260;23;20437;-77
2022/02/22 12:30:05;;;;;;;9.90;1.13;;;;;;;9.20;34.94;97784.03;12694711;23;20033;-79
2022/02/22 12:35:32;;;;;;;7.10;1.35;;;;;;;9.72;35.30;97780.78;12753522;23;20088;-77
2022/02/22 12:40:56;;;;;;;7.57;1.30;;;;;;;11.13;33.96;97785.53;12679761;23;20045;-77
2022/02/22 12:46:31;;;;;;;5.28;0.98;;;;;;;12.17;32.47;97789.38;12708102;23;20041;-77
2022/02/22 12:52:03;;;;;;;6.07;1.00;;;;;;;11.75;31.15;97774.88;12702957;23;20085;-77
2022/02/22 12:57:33;;;;;;;6.43;1.10;;;;;;;11.59;31.85;97790.66;12713782;23;20018;-77
2022/02/22 13:04:29;;;;;;;6.90;1.23;;;;;;;11.15;31.49;97789.19;12616807;23;20022;-81
2022/02/22 13:09:51;;;;;;;9.05;1.08;;;;;;;11.49;31.52;97798.38;12631445;23;20508;-80
2022/02/22 13:15:44;;;;;;;4.65;1.13;;;;;;;12.26;29.12;97786.47;12579122;23;20018;-77
2022/02/22 13:21:15;;;;;;;4.97;1.00;;;;;;;12.58;28.79;97789.78;12631319;23;20029;-78
2022/02/22 13:26:46;;;;;;;6.90;0.98;;;;;;;12.42;28.48;97802.78;12645229;23;20072;-77
2022/02/22 13:33:35;;;;;;;7.20;1.30;;;;;;;11.71;28.62;97797.00;12490828;23;20346;-77
2022/02/22 13:39:02;;;;;;;4.85;1.17;;;;;;;11.37;29.03;97814.34;12500578;23;20016;-78
2022/02/22 13:44:33;;;;;;;6.38;1.15;;;;;;;11.02;29.51;97819.72;12439276;23;20023;-77
2022/02/22 13:49:56;;;;;;;6.00;1.30;;;;;;;10.46;29.58;97829.22;12586761;23;20045;-77
2022/02/22 13:55:22;;;;;;;5.97;1.05;;;;;;;10.24;30.17;97824.91;12598366;23;20032;-76
2022/02/22 14:00:47;;;;;;;5.97;1.13;;;;;;;10.10;30.41;97821.81;12598750;23;20041;-76
2022/02/22 14:06:11;;;;;;;5.55;1.20;;;;;;;10.53;30.03;97827.59;12600258;23;20341;-78
2022/02/22 14:12:00;;;;;;;8.15;1.38;;;;;;;10.93;29.63;97826.84;12606036;23;20030;-76
2022/02/22 14:17:49;;;;;;;6.90;1.00;;;;;;;10.96;29.55;97830.47;12604171;23;20026;-76
2022/02/22 14:23:10;;;;;;;4.55;0.60;;;;;;;10.87;29.17;97826.41;12599963;23;20018;-76
2022/02/22 14:28:31;;;;;;;4.63;0.68;;;;;;;10.27;29.38;97837.66;12641393;23;20019;-76
2022/02/22 14:34:01;;;;;;;6.45;1.00;;;;;;;9.77;30.02;97837.56;12619407;23;20018;-75
2022/02/22 14:40:00;;;;;;;6.15;1.13;;;;;;;9.39;31.33;97844.59;12589034;23;20094;-76
2022/02/22 14:46:23;;;;;;;6.28;0.80;;;;;;;9.23;31.93;97838.56;12590377;23;20031;-76
2022/02/22 14:52:52;;;;;;;4.00;0.68;;;;;;;9.17;31.88;97846.47;12617467;23;20027;-76
2022/02/22 14:58:41;;;;;;;5.65;0.77;;;;;;;8.93;32.21;97839.09;12658829;23;20026;-82
2022/02/22 15:04:02;;;;;;;7.13;1.05;;;;;;;8.87;32.59;97834.50;12659502;23;20022;-75
2022/02/22 15:09:23;;;;;;;7.30;1.08;;;;;;;8.88;32.81;97846.41;12637865;23;20014;-76
2022/02/22 15:14:47;;;;;;;6.20;0.90;;;;;;;8.93;33.09;97844.66;12641030;23;20029;-76
2022/02/22 15:20:08;;;;;;;4.63;1.02;;;;;;;8.88;33.78;97851.97;12657953;23;20069;-76
2022/02/22 15:25:29;;;;;;;7.38;1.30;;;;;;;8.95;34.29;97855.94;12628345;23;20022;-79
2022/02/22 15:32:23;;;;;;;5.78;1.15;;;;;;;8.95;34.93;97858.72;12587387;23;20028;-79
2022/02/22 15:38:14;;;;;;;6.35;1.13;;;;;;;8.54;35.09;97844.50;12542355;23;20474;-77
2022/02/22 15:44:06;;;;;;;7.72;1.10;;;;;;;8.19;35.87;97838.28;12543942;23;20054;-78
2022/02/22 15:49:29;;;;;;;6.77;1.30;;;;;;;7.97;36.78;97823.38;12630441;23;20022;-80
2022/02/22 15:54:50;;;;;;;8.55;1.40;;;;;;;7.76;37.36;97823.84;12672630;23;20264;-81
2022/02/22 16:00:12;;;;;;;8.10;1.70;;;;;;;7.61;38.25;97818.44;12652640;23;20072;-79
2022/02/22 16:05:33;;;;;;;7.05;2.03;;;;;;;7.43;38.03;97821.25;12618572;23;20439;-81
2022/02/22 16:10:54;;;;;;;8.13;1.80;;;;;;;7.31;38.56;97820.25;12637449;23;20018;-78
2022/02/22 16:16:16;;;;;;;7.93;1.40;;;;;;;7.30;38.75;97820.81;12638842;23;20022;-77
2022/02/22 16:22:12;;;;;;;5.47;1.50;;;;;;;7.08;40.26;97814.94;12659784;23;20382;-77
2022/02/22 16:28:02;;;;;;;10.25;1.65;;;;;;;6.94;40.02;97801.94;12665985;23;20101;-78
2022/02/22 16:33:41;;;;;;;5.88;1.55;;;;;;;6.89;40.80;97803.66;12653656;23;20402;-80
2022/02/22 16:39:02;;;;;;;7.85;1.50;;;;;;;6.86;41.03;97788.16;12655687;23;20340;-79
2022/02/22 16:44:22;;;;;;;11.35;1.60;;;;;;;6.82;41.11;97787.78;12682529;23;20018;-78
2022/02/22 16:49:43;;;;;;;10.75;1.75;;;;;;;6.76;41.99;97801.91;12659085;23;20018;-78
2022/02/22 16:55:05;;;;;;;10.90;1.83;;;;;;;6.71;42.19;97816.75;12619922;23;20025;-80
2022/02/22 17:00:26;;;;;;;7.40;1.60;;;;;;;6.64;42.62;97805.69;12643409;23;20018;-80
2022/02/22 17:05:47;;;;;;;9.15;1.98;;;;;;;6.56;42.00;97814.84;12640569;23;20064;-78
2022/02/22 17:11:09;;;;;;;8.68;1.73;;;;;;;6.54;43.44;97819.47;12663702;23;20092;-76
2022/02/22 17:16:31;;;;;;;9.25;1.63;;;;;;;6.57;42.31;97818.34;12638832;23;20033;-76
2022/02/22 17:21:53;;;;;;;8.73;1.58;;;;;;;6.62;42.88;97805.53;12679941;23;20573;-77
2022/02/22 17:27:15;;;;;;;8.98;1.85;;;;;;;6.69;43.00;97799.19;12642101;23;20333;-81
2022/02/22 17:32:38;;;;;;;9.70;1.88;;;;;;;6.72;43.33;97778.63;12618512;23;20026;-77
2022/02/22 17:38:02;;;;;;;8.45;1.80;;;;;;;6.75;44.09;97769.16;12670202;23;20373;-76
2022/02/22 17:43:26;;;;;;;9.18;2.00;;;;;;;6.84;43.63;97765.75;12677373;23;20029;-83
2022/02/22 17:48:47;;;;;;;8.52;1.95;;;;;;;6.90;43.86;97752.41;12687232;23;20017;-80
2022/02/22 17:54:08;;;;;;;6.68;1.50;;;;;;;6.93;43.98;97744.97;12661942;23;20326;-79
2022/02/22 17:59:30;;;;;;;9.52;1.70;;;;;;;6.86;44.15;97738.94;12650497;23;20049;-81
2022/02/22 18:04:50;;;;;;;7.57;1.92;;;;;;;6.80;44.08;97740.47;12618752;23;20072;-76
2022/02/22 18:10:16;;;;;;;5.93;1.85;;;;;;;6.75;44.19;97749.75;12638948;23;20022;-76
2022/02/22 18:15:42;;;;;;;7.95;2.45;;;;;;;6.60;44.56;97734.00;12619757;23;20021;-76
2022/02/22 18:21:03;;;;;;;7.18;2.30;;;;;;;6.54;45.05;97719.63;12642135;23;20021;-76
2022/02/22 18:26:52;;;;;;;10.32;1.92;;;;;;;6.53;44.89;97721.66;12650541;23;20440;-77
2022/02/22 18:32:14;;;;;;;8.02;2.67;;;;;;;6.55;45.24;97716.28;12658880;23;20036;-77
2022/02/22 18:37:37;;;;;;;8.30;2.67;;;;;;;6.58;45.56;97711.66;12619942;23;20022;-77
2022/02/22 18:42:57;;;;;;;9.98;2.40;;;;;;;6.67;45.22;97713.03;12638714;23;20326;-77
2022/02/22 18:48:20;;;;;;;9.38;2.85;;;;;;;6.69;45.48;97719.50;12637830;23;20014;-77
2022/02/22 18:53:41;;;;;;;7.30;1.98;;;;;;;6.70;45.97;97720.22;12638342;23;20018;-76
2022/02/22 18:59:34;;;;;;;8.13;1.77;;;;;;;6.72;45.90;97706.50;12634102;23;20026;-77
2022/02/22 19:04:56;;;;;;;6.05;1.65;;;;;;;6.80;45.83;97710.69;12638328;23;20025;-78
2022/02/22 19:10:19;;;;;;;7.60;1.73;;;;;;;6.86;46.11;97693.81;12657671;23;20014;-77
2022/02/22 19:15:40;;;;;;;6.88;1.60;;;;;;;6.90;46.13;97694.13;12618223;23;20433;-77
2022/02/22 19:21:29;;;;;;;6.28;1.63;;;;;;;6.86;46.90;97691.75;12635188;23;20438;-77
2022/02/22 19:26:53;;;;;;;7.80;1.65;;;;;;;6.86;46.88;97682.72;12637624;23;20022;-77
2022/02/22 19:32:16;;;;;;;7.20;1.70;;;;;;;6.88;47.88;97674.53;12638698;23;20421;-78
2022/02/22 19:37:37;;;;;;;6.20;1.58;;;;;;;6.92;47.34;97658.19;12619779;23;20097;-80
2022/02/22 19:43:00;;;;;;;7.57;1.60;;;;;;;7.00;47.85;97658.13;12638118;23;20020;-77
2022/02/22 19:49:02;;;;;;;5.57;0.95;;;;;;;6.97;48.68;97659.28;12635581;23;20422;-77
2022/02/22 19:54:27;;;;;;;6.07;1.45;;;;;;;7.00;48.76;97663.66;12637785;23;20018;-77
2022/02/22 20:00:18;;;;;;;7.03;1.80;;;;;;;7.01;49.55;97615.91;12632294;23;20053;-77
2022/02/22 20:05:39;;;;;;;7.25;1.48;;;;;;;6.94;50.37;97647.25;12618227;23;20018;-77
2022/02/22 20:11:06;;;;;;;6.00;1.73;;;;;;;6.92;51.23;97640.81;12635999;23;20468;-76
2022/02/22 20:17:09;;;;;;;6.32;1.38;;;;;;;6.91;52.68;97633.81;12656905;23;20021;-76
2022/02/22 20:22:38;;;;;;;10.52;1.70;;;;;;;6.87;53.05;97623.84;12656998;23;20081;-76
2022/02/22 20:28:29;;;;;;;6.18;1.70;;;;;;;6.84;53.15;97629.81;12633224;23;20349;-77
2022/02/22 20:33:50;;;;;;;6.55;1.75;;;;;;;6.87;54.13;97617.56;12636276;23;20032;-77
2022/02/22 20:39:11;;;;;;;8.45;1.45;;;;;;;6.84;55.00;97615.94;12636207;23;20025;-76
2022/02/22 20:44:39;;;;;;;5.55;1.25;;;;;;;6.75;55.82;97622.13;12635658;23;20076;-76
2022/02/22 20:50:05;;;;;;;5.75;1.23;;;;;;;6.73;55.90;97624.75;12636658;23;20535;-76
2022/02/22 20:55:27;;;;;;;5.72;1.17;;;;;;;6.70;56.69;97598.91;12596791;23;20018;-75
2022/02/22 21:01:55;;;;;;;5.45;1.10;;;;;;;6.66;57.51;97642.22;12629478;23;20071;-77
2022/02/22 21:07:44;;;;;;;;;;;;;;;6.68;58.04;97629.25;12666761;23;20029;-75
2022/02/22 21:13:07;;;;;;;5.07;1.40;;;;;;;6.71;57.88;97635.69;12640599;23;19924;-79
2022/02/22 21:26:29;;;;;;;6.57;1.10;;;;;;;6.51;58.70;97624.44;12682128;23;20030;-75
2022/02/22 21:32:57;;;;;;;5.70;0.95;;;;;;;6.46;59.49;97614.31;12637662;23;20021;-75
2022/02/22 21:38:53;;;;;;;5.20;0.80;;;;;;;6.59;59.94;97611.22;12650200;23;20104;-77
2022/02/22 21:44:49;;;;;;;3.50;0.77;;;;;;;6.66;59.94;97606.91;12651400;23;20053;-76
2022/02/22 21:51:16;;;;;;;4.78;1.00;;;;;;;6.72;60.68;97615.69;12640619;23;20025;-75
2022/02/22 22:05:28;;;;;;;5.40;1.08;;;;;;;6.75;61.61;97631.19;12640565;23;20018;-74
2022/02/22 22:12:32;;;;;;;5.75;1.05;;;;;;;6.85;61.06;97625.72;12603607;23;20054;-75
2022/02/22 22:18:28;;;;;;;4.57;0.73;;;;;;;6.87;60.92;97604.44;12604637;23;20027;-73
2022/02/22 22:40:10;;;;;;;6.40;1.30;;;;;;;6.95;61.97;97609.13;12618211;23;20022;-73
2022/02/22 22:46:38;;;;;;;5.15;1.17;;;;;;;6.92;62.49;97619.34;12618831;23;20030;-73
2022/02/22 23:24:55;;;;;;;6.30;1.25;;;;;;;7.02;63.57;97600.72;12613906;23;20342;-73
2022/02/22 23:39:27;;;;;;;5.07;1.75;;;;;;;6.92;64.73;97588.09;12612522;23;20020;-73
2022/02/22 23:53:22;;;;;;;6.93;1.30;;;;;;;7.02;65.31;97580.56;12661943;23;20026;-73
